EW0387 Weather Reports


Display with metric or nautical units.
time (UTC)temp
F
wind
direction
speed
MPH
gust
MPH
rain 1hr
in
rain 24hr
in
rain mn
in
humidity
%
barometer
mb
20240525211530 74 352 3.0 0.0 0.00 0.00 0.00 34 988.3
20240525210025 74 304 5.0 0.0 0.00 0.00 0.00 34 987.9
20240525204525 73 35 4.0 0.0 0.00 0.00 0.00 35 987.8
20240525203028 71 312 4.0 0.0 0.00 0.00 0.00 35 988.4
20240525201524 74 73 3.0 0.0 0.00 0.00 0.00 34 987.5
20240525200024 71 307 5.0 0.0 0.00 0.00 0.00 37 987.9
20240525194523 73 51 3.0 0.0 0.00 0.00 0.00 34 987.9
20240525193023 73 352 2.0 0.0 0.00 0.00 0.00 35 987.9
20240525191523 72 39 4.0 0.0 0.00 0.00 0.00 36 987.9
20240525190025 75 281 4.0 0.0 0.00 0.00 0.00 33 986.9
20240525184528 75 282 3.0 0.0 0.00 0.00 0.00 32 987.3
20240525183018 73 220 3.0 0.0 0.00 0.00 0.00 34 987.9
20240525181539 74 77 3.0 0.0 0.00 0.00 0.00 33 988.0
20240525180019 73 49 3.0 0.0 0.00 0.00 0.00 35 987.9
20240525174513 72 54 2.0 0.0 0.00 0.00 0.00 37 988.0
20240525173017 70 334 3.0 0.0 0.00 0.00 0.00 38 988.9
20240525171518 72 19 4.0 0.0 0.00 0.00 0.00 35 988.6
20240525170016 70 43 5.0 0.0 0.00 0.00 0.00 37 988.6
20240525164507 70 18 4.0 0.0 0.00 0.00 0.00 36 988.6
20240525163006 67 352 4.0 0.0 0.00 0.00 0.00 39 989.0
20240525161506 67 352 4.0 0.0 0.00 0.00 0.00 41 989.3
20240525160001 65 325 3.0 0.0 0.00 0.00 0.00 42 989.9
20240525154600 66 40 3.0 0.0 0.00 0.00 0.00 40 989.5
20240525153103 64 320 4.0 0.0 0.00 0.00 0.00 43 990.3
20240525151555 63 325 4.0 0.0 0.00 0.00 0.00 43 990.8
20240525150057 62 330 5.0 0.0 0.00 0.00 0.00 44 990.9
20240525144551 62 13 4.0 0.0 0.00 0.00 0.00 45 990.9
20240525143048 60 356 6.0 0.0 0.00 0.00 0.00 46 991.4
20240525141559 59 316 4.0 0.0 0.00 0.00 0.00 48 991.4
20240525140045 57 357 3.0 0.0 0.00 0.00 0.00 49 991.0
20240525134545 55 326 2.0 0.0 0.00 0.00 0.00 54 991.4
20240525133047 53 290 2.0 0.0 0.00 0.00 0.00 55 991.8
20240525131546 51 284 2.0 0.0 0.00 0.00 0.00 56 992.1
20240525130044 50 289 1.0 0.0 0.00 0.00 0.00 57 992.6
20240525124540 48 250 1.0 0.0 0.00 0.00 0.00 58 992.9
20240525123046 47 173 0.0 0.0 0.00 0.00 0.00 61 992.9
20240525121551 47 206 0.0 0.0 0.00 0.00 0.00 61 992.9
20240525120039 46 185 0.0 0.0 0.00 0.00 0.00 61 992.9
20240525114542 47 179 0.0 0.0 0.00 0.00 0.00 61 992.9
20240525113043 47 143 0.0 0.0 0.00 0.00 0.00 60 993.0
20240525111538 48 209 0.0 0.0 0.00 0.00 0.00 59 992.6
20240525110029 49 289 0.0 0.0 0.00 0.00 0.00 56 992.0
20240525104557 49 286 0.0 0.0 0.00 0.00 0.00 55 992.3
20240525103032 50 263 0.0 0.0 0.00 0.00 0.00 54 992.1
20240525101525 50 135 0.0 0.0 0.00 0.00 0.00 57 992.5
20240525100032 50 135 2.0 0.0 0.00 0.00 0.00 57 992.3
20240525094521 51 129 2.0 0.0 0.00 0.00 0.00 55 992.0
20240525093017 52 187 2.0 0.0 0.00 0.00 0.00 49 992.1
20240525091521 52 198 2.0 0.0 0.00 0.00 0.00 49 992.2
20240525090023 52 235 3.0 0.0 0.00 0.00 0.00 49 992.2
20240525084520 53 217 3.0 0.0 0.00 0.00 0.00 49 992.6
20240525083032 53 265 3.0 0.0 0.00 0.00 0.00 48 992.7
20240525081512 53 222 1.0 0.0 0.00 0.00 0.00 48 992.7
20240525080022 53 212 2.0 0.0 0.00 0.00 0.00 49 992.3
20240525074509 53 216 2.0 0.0 0.00 0.00 0.00 51 992.3
20240525073007 54 229 0.0 0.0 0.00 0.00 0.00 52 992.6
20240525071504 55 258 0.0 0.0 0.00 0.00 0.00 51 992.7
20240525070003 55 258 1.0 0.0 0.00 0.00 0.00 50 993.9
20240525064502 55 238 1.0 0.0 0.00 0.00 0.00 50 993.9
20240525063100 56 266 0.0 0.0 0.00 0.00 0.00 48 994.0
20240525061604 57 347 0.0 0.0 0.00 0.00 0.00 48 994.2
20240525060054 58 283 1.0 0.0 0.00 0.00 0.00 46 994.9
20240525054553 58 252 1.0 0.0 0.00 0.00 0.00 43 995.1
20240525053053 59 316 0.0 0.0 0.00 0.00 0.00 42 994.9
20240525051553 59 347 1.0 0.0 0.00 0.00 0.00 41 995.0
20240525050100 60 40 0.0 0.0 0.00 0.00 0.00 39 995.8
20240525044559 60 93 1.0 0.0 0.00 0.00 0.00 41 995.8
20240525043051 60 80 0.0 0.0 0.00 0.00 0.00 40 996.0
20240525041551 60 62 0.0 0.0 0.00 0.00 0.00 41 995.8
20240525040051 61 57 0.0 0.0 0.00 0.00 0.00 39 996.8
20240525034558 62 178 0.0 0.0 0.00 0.00 0.00 37 996.8
20240525033050 62 154 2.0 0.0 0.00 0.00 0.00 35 996.6
20240525031559 62 192 2.0 0.0 0.00 0.00 0.00 35 996.3
20240525030049 63 181 1.0 0.0 0.00 0.00 0.00 34 996.4
20240525024549 64 258 5.0 0.0 0.00 0.00 0.00 32 995.4
20240525023048 64 255 6.0 0.0 0.00 0.00 0.00 32 995.6
20240525021548 65 338 7.0 0.0 0.00 0.00 0.00 32 996.0
20240525020049 66 253 10.0 0.0 0.00 0.00 0.00 30 996.3
20240525014549 67 305 9.0 0.0 0.00 0.00 0.00 29 995.8
20240525013050 67 291 4.0 0.0 0.00 0.00 0.00 33 995.9
20240525011546 65 175 5.0 0.0 0.00 0.00 0.00 36 996.1
20240525010047 65 143 5.0 0.0 0.00 0.00 0.00 37 996.4
20240525004546 65 160 7.0 0.0 0.00 0.00 0.00 36 996.4
20240525003102 65 104 6.0 0.0 0.00 0.00 0.00 36 996.4
20240525001546 66 169 4.0 0.0 0.00 0.00 0.00 37 996.4
20240525000048 67 66 4.0 0.0 0.00 0.00 0.00 37 996.7
20240524234548 67 175 5.0 0.0 0.00 0.00 0.00 35 996.8
20240524233043 68 120 6.0 0.0 0.00 0.00 0.00 34 996.5
20240524231543 69 231 6.0 0.0 0.00 0.00 0.00 34 996.4
20240524230043 70 128 4.0 0.0 0.00 0.00 0.00 34 995.3
20240524224543 73 156 1.0 0.0 0.00 0.00 0.00 25 995.1
20240524223043 72 145 2.0 0.0 0.00 0.00 0.00 26 995.6
20240524221557 73 31 1.0 0.0 0.00 0.00 0.00 27 995.3
20240524220040 70 87 3.0 0.0 0.00 0.00 0.00 28 995.6
20240524214551 72 95 4.0 0.0 0.00 0.00 0.00 27 995.3
20240524213049 72 23 4.0 0.0 0.00 0.00 0.00 27 995.2